Time;durP1;ratioP1;P1;durP2;ratioP2;P2;SDS_P1;SDS_P2;PMS_P1;PMS_P2;Temp;Humidity;BMP_temperature;BMP_pressure;BME280_temperature;BME280_humidity;BME280_pressure;Samples;Min_cycle;Max_cycle;Signal;HPM_P1;HPM_P2
2023/07/19 00:00:27;;;;;;;8.63;3.92;;;;;;;;;;5027304;28;20060;-84
2023/07/19 00:02:53;;;;;;;6.07;3.88;;;;;;;;;;5029808;28;20060;-84
2023/07/19 00:05:29;;;;;;;5.55;4.30;;;;;;;;;;5026971;28;20103;-84
2023/07/19 00:07:55;;;;;;;4.20;3.80;;;;;;;;;;5068003;28;20041;-84
2023/07/19 00:10:21;;;;;;;4.40;3.20;;;;;;;;;;5021826;28;20028;-84
2023/07/19 00:12:47;;;;;;;4.25;3.17;;;;;;;;;;5026474;28;20060;-83
2023/07/19 00:15:13;;;;;;;5.15;3.80;;;;;;;;;;5007954;28;20052;-84
2023/07/19 00:17:44;;;;;;;3.33;3.00;;;;;;;;;;5035796;28;20159;-84
2023/07/19 00:20:10;;;;;;;7.22;4.18;;;;;;;;;;5031793;28;20045;-84
2023/07/19 00:22:37;;;;;;;4.00;3.60;;;;;;;;;;5065452;28;20053;-84
2023/07/19 00:25:03;;;;;;;6.47;3.92;;;;;;;;;;5042248;28;20037;-84
2023/07/19 00:27:29;;;;;;;4.05;3.47;;;;;;;;;;5030041;28;20082;-84
2023/07/19 00:29:55;;;;;;;5.25;4.15;;;;;;;;;;5036122;28;20489;-83
2023/07/19 00:32:21;;;;;;;5.18;3.80;;;;;;;;;;5026791;28;20048;-84
2023/07/19 00:34:47;;;;;;;7.07;4.32;;;;;;;;;;5010458;28;20037;-84
2023/07/19 00:37:14;;;;;;;6.50;3.75;;;;;;;;;;5044229;28;20444;-84
2023/07/19 00:39:46;;;;;;;5.18;3.97;;;;;;;;;;5032189;28;20123;-84
2023/07/19 00:42:12;;;;;;;4.32;3.72;;;;;;;;;;5046836;28;20080;-84
2023/07/19 00:44:38;;;;;;;6.50;4.05;;;;;;;;;;5026011;28;20116;-83
2023/07/19 00:47:04;;;;;;;7.05;3.72;;;;;;;;;;5023123;28;20060;-84
2023/07/19 00:49:31;;;;;;;6.30;4.05;;;;;;;;;;5040473;28;20063;-84
2023/07/19 00:51:58;;;;;;;5.70;3.70;;;;;;;;;;5014787;28;20041;-84
2023/07/19 00:54:24;;;;;;;3.95;3.40;;;;;;;;;;5000607;28;20064;-84
2023/07/19 00:56:50;;;;;;;8.95;3.75;;;;;;;;;;5012194;28;20043;-84
2023/07/19 00:59:16;;;;;;;4.20;3.83;;;;;;;;;;5029238;28;20638;-84
2023/07/19 01:01:45;;;;;;;5.75;3.70;;;;;;;;;;5030724;28;20683;-84
2023/07/19 01:04:12;;;;;;;4.05;3.58;;;;;;;;;;5021692;28;20686;-84
2023/07/19 01:06:38;;;;;;;4.40;3.80;;;;;;;;;;5049527;28;20359;-84
2023/07/19 01:09:04;;;;;;;5.13;3.55;;;;;;;;;;5013432;28;20368;-84
2023/07/19 01:11:31;;;;;;;7.32;3.55;;;;;;;;;;5040784;28;20116;-84
2023/07/19 01:13:59;;;;;;;3.95;3.53;;;;;;;;;;5012573;28;20076;-84
2023/07/19 01:16:25;;;;;;;5.60;3.78;;;;;;;;;;5063528;28;20099;-84
2023/07/19 01:18:51;;;;;;;5.32;3.70;;;;;;;;;;5030519;28;20056;-84
2023/07/19 01:21:18;;;;;;;4.90;3.80;;;;;;;;;;5015039;28;20748;-84
2023/07/19 01:23:44;;;;;;;4.78;3.30;;;;;;;;;;5042182;28;20045;-84
2023/07/19 01:26:10;;;;;;;4.32;3.53;;;;;;;;;;5024867;28;20396;-84
2023/07/19 01:28:39;;;;;;;7.18;3.35;;;;;;;;;;5015491;28;20048;-84
2023/07/19 01:31:11;;;;;;;5.60;3.53;;;;;;;;;;5009971;28;20049;-84
2023/07/19 01:33:37;;;;;;;6.70;3.85;;;;;;;;;;5041019;28;20119;-83
2023/07/19 01:36:04;;;;;;;6.28;3.90;;;;;;;;;;5013250;28;20106;-84
2023/07/19 01:38:30;;;;;;;6.28;3.75;;;;;;;;;;5050682;28;20045;-84
2023/07/19 01:40:56;;;;;;;4.85;3.53;;;;;;;;;;5065583;28;20546;-84
2023/07/19 01:43:22;;;;;;;5.20;3.80;;;;;;;;;;5023334;28;20044;-84
2023/07/19 01:45:48;;;;;;;4.88;3.35;;;;;;;;;;5017456;28;20049;-84
2023/07/19 01:48:14;;;;;;;3.35;3.05;;;;;;;;;;5014782;28;20048;-84
2023/07/19 01:50:41;;;;;;;5.68;3.60;;;;;;;;;;5036329;28;20052;-85
2023/07/19 01:53:07;;;;;;;4.30;3.60;;;;;;;;;;5040614;28;20068;-84
2023/07/19 01:55:33;;;;;;;4.28;3.85;;;;;;;;;;5030519;28;20055;-84
2023/07/19 01:57:59;;;;;;;4.55;3.80;;;;;;;;;;5028424;28;20041;-84
2023/07/19 02:00:25;;;;;;;5.43;3.50;;;;;;;;;;5028557;28;20056;-84
2023/07/19 02:02:51;;;;;;;3.95;3.55;;;;;;;;;;5048787;28;20056;-84
2023/07/19 02:05:17;;;;;;;5.88;3.78;;;;;;;;;;5023404;28;20048;-84
2023/07/19 02:07:44;;;;;;;5.25;3.38;;;;;;;;;;5028523;28;20523;-84
2023/07/19 02:10:11;;;;;;;6.72;4.03;;;;;;;;;;5012049;28;20037;-84
2023/07/19 02:12:37;;;;;;;6.90;4.63;;;;;;;;;;5055242;28;20159;-85
2023/07/19 02:15:03;;;;;;;4.82;3.47;;;;;;;;;;5025871;28;20130;-84
2023/07/19 02:17:29;;;;;;;5.40;3.67;;;;;;;;;;5014047;28;20041;-84
2023/07/19 02:19:55;;;;;;;4.70;3.55;;;;;;;;;;5064293;28;20044;-84
2023/07/19 02:22:23;;;;;;;9.32;4.07;;;;;;;;;;5008293;28;20041;-85
2023/07/19 02:24:49;;;;;;;5.90;3.63;;;;;;;;;;5025806;28;20048;-84
2023/07/19 02:27:18;;;;;;;5.82;4.00;;;;;;;;;;5040550;28;20085;-85
2023/07/19 02:29:44;;;;;;;3.85;3.38;;;;;;;;;;5037382;28;20513;-84
2023/07/19 02:32:10;;;;;;;4.28;3.88;;;;;;;;;;5008646;28;20044;-84
2023/07/19 02:34:36;;;;;;;5.65;4.13;;;;;;;;;;5014210;28;20044;-84
2023/07/19 02:37:02;;;;;;;8.45;4.63;;;;;;;;;;5044306;28;20093;-84
2023/07/19 02:39:30;;;;;;;7.10;4.15;;;;;;;;;;5010200;28;20045;-85
2023/07/19 02:41:57;;;;;;;6.28;4.35;;;;;;;;;;5058472;28;20041;-83
2023/07/19 02:44:23;;;;;;;4.50;4.10;;;;;;;;;;5028737;28;20083;-83
2023/07/19 02:46:49;;;;;;;4.97;4.40;;;;;;;;;;5058909;28;20037;-83
2023/07/19 02:49:15;;;;;;;5.43;4.93;;;;;;;;;;5051774;28;20025;-83
2023/07/19 02:51:42;;;;;;;10.80;6.20;;;;;;;;;;5060552;28;20036;-83
2023/07/19 02:54:08;;;;;;;7.57;5.30;;;;;;;;;;5017460;28;20492;-83
2023/07/19 02:56:34;;;;;;;7.35;4.93;;;;;;;;;;5011079;28;20483;-83
2023/07/19 02:59:00;;;;;;;8.30;5.18;;;;;;;;;;5027190;28;20444;-83
2023/07/19 03:01:27;;;;;;;6.00;5.32;;;;;;;;;;5015406;28;20652;-83
2023/07/19 03:03:53;;;;;;;5.68;4.97;;;;;;;;;;5025171;28;20448;-83
2023/07/19 03:06:19;;;;;;;7.70;5.70;;;;;;;;;;5055980;28;20121;-83
2023/07/19 03:08:45;;;;;;;6.72;5.70;;;;;;;;;;5051151;28;20037;-83
2023/07/19 03:11:12;;;;;;;6.18;5.55;;;;;;;;;;5024322;28;20032;-83
2023/07/19 03:13:38;;;;;;;6.88;5.40;;;;;;;;;;5011626;28;20052;-83
2023/07/19 03:16:05;;;;;;;7.25;5.70;;;;;;;;;;5040293;28;20142;-83
2023/07/19 03:18:31;;;;;;;6.47;5.87;;;;;;;;;;5029364;28;20041;-83
2023/07/19 03:21:01;;;;;;;6.57;5.97;;;;;;;;;;5043140;28;20067;-83
2023/07/19 03:23:27;;;;;;;6.15;5.55;;;;;;;;;;5020661;28;20102;-83
2023/07/19 03:25:57;;;;;;;7.72;5.57;;;;;;;;;;5027050;28;20045;-84
2023/07/19 03:28:24;;;;;;;8.50;5.97;;;;;;;;;;5018687;28;20106;-83
2023/07/19 03:30:54;;;;;;;6.47;5.85;;;;;;;;;;5063259;28;20491;-83
2023/07/19 03:33:20;;;;;;;7.40;5.90;;;;;;;;;;5005595;28;20097;-83
2023/07/19 03:35:46;;;;;;;7.53;5.95;;;;;;;;;;5027375;28;20044;-84
2023/07/19 03:38:12;;;;;;;7.78;5.65;;;;;;;;;;5042055;28;20041;-83
2023/07/19 03:40:38;;;;;;;7.20;5.85;;;;;;;;;;5038608;28;20048;-83
2023/07/19 03:43:04;;;;;;;7.05;6.00;;;;;;;;;;5039802;28;20131;-83
2023/07/19 03:45:30;;;;;;;8.88;5.90;;;;;;;;;;5063302;28;20029;-83
2023/07/19 03:47:59;;;;;;;8.73;5.43;;;;;;;;;;5027057;28;20041;-83
2023/07/19 03:50:25;;;;;;;7.40;6.65;;;;;;;;;;5030276;28;20044;-84
2023/07/19 03:52:51;;;;;;;7.07;5.97;;;;;;;;;;5028098;28;20184;-83
2023/07/19 03:55:17;;;;;;;9.25;6.75;;;;;;;;;;5017371;28;21332;-84
2023/07/19 03:57:59;;;;;;;7.80;6.45;;;;;;;;;;5043153;28;20109;-84
2023/07/19 04:00:27;;;;;;;6.82;6.22;;;;;;;;;;5028425;28;20124;-84
2023/07/19 04:02:53;;;;;;;7.53;6.70;;;;;;;;;;5057415;28;20518;-84
2023/07/19 04:05:19;;;;;;;6.60;6.00;;;;;;;;;;5048641;28;20365;-84
2023/07/19 04:07:45;;;;;;;8.45;6.40;;;;;;;;;;5015091;28;20056;-84
2023/07/19 04:10:11;;;;;;;7.05;6.18;;;;;;;;;;5048791;28;20116;-84
2023/07/19 04:12:37;;;;;;;8.05;7.25;;;;;;;;;;5021794;28;20052;-84
2023/07/19 04:15:03;;;;;;;11.15;7.90;;;;;;;;;;5059390;28;20098;-84
2023/07/19 04:17:29;;;;;;;9.80;6.57;;;;;;;;;;5032829;28;20072;-84
2023/07/19 04:19:55;;;;;;;9.70;7.53;;;;;;;;;;5009660;28;20496;-84
2023/07/19 04:22:21;;;;;;;8.88;7.47;;;;;;;;;;5061950;28;20082;-84
2023/07/19 04:24:48;;;;;;;9.05;6.45;;;;;;;;;;4999083;28;20076;-84
2023/07/19 04:27:14;;;;;;;10.02;7.45;;;;;;;;;;5037247;28;20044;-84
2023/07/19 04:29:40;;;;;;;9.27;7.00;;;;;;;;;;5074458;28;20099;-84
2023/07/19 04:32:06;;;;;;;10.13;7.05;;;;;;;;;;5067489;28;20053;-84
2023/07/19 04:34:32;;;;;;;9.68;6.90;;;;;;;;;;5030415;28;20045;-84
2023/07/19 04:37:01;;;;;;;8.40;7.43;;;;;;;;;;5064350;28;20059;-84
2023/07/19 04:39:27;;;;;;;8.40;7.55;;;;;;;;;;5014642;28;20151;-84
2023/07/19 04:41:53;;;;;;;11.20;7.90;;;;;;;;;;5016930;28;20270;-84
2023/07/19 04:44:20;;;;;;;11.10;8.18;;;;;;;;;;5006814;28;20041;-84
2023/07/19 04:46:46;;;;;;;10.40;7.32;;;;;;;;;;5033291;28;20052;-84
2023/07/19 04:49:12;;;;;;;9.27;8.00;;;;;;;;;;5046386;28;20109;-84
2023/07/19 04:51:39;;;;;;;9.27;8.32;;;;;;;;;;5041417;28;20041;-84
2023/07/19 04:54:05;;;;;;;8.75;7.80;;;;;;;;;;5010138;28;20033;-84
2023/07/19 04:56:31;;;;;;;14.07;8.48;;;;;;;;;;5025450;28;20052;-84
2023/07/19 04:58:59;;;;;;;11.45;8.68;;;;;;;;;;5034272;28;20075;-84
2023/07/19 05:01:25;;;;;;;;;;;;;;;;;;5019896;28;20110;-84
2023/07/19 05:03:51;;;;;;;8.93;7.40;;;;;;;;;;5026476;28;19925;-84
2023/07/19 05:06:17;;;;;;;9.15;7.75;;;;;;;;;;5013297;28;22138;-84
2023/07/19 05:08:44;;;;;;;9.93;8.13;;;;;;;;;;5030350;28;20124;-84
2023/07/19 05:11:10;;;;;;;9.35;7.55;;;;;;;;;;5041733;28;20095;-84
2023/07/19 05:13:36;;;;;;;8.68;7.60;;;;;;;;;;5062601;28;20052;-84
2023/07/19 05:16:03;;;;;;;10.73;8.18;;;;;;;;;;5026016;28;20046;-84
2023/07/19 05:18:29;;;;;;;9.10;8.18;;;;;;;;;;5016440;28;20610;-84
2023/07/19 05:20:55;;;;;;;9.20;7.70;;;;;;;;;;5033956;28;20037;-84
2023/07/19 05:23:21;;;;;;;10.55;8.27;;;;;;;;;;5039794;28;20488;-84
2023/07/19 05:25:48;;;;;;;10.52;8.10;;;;;;;;;;5055361;28;20116;-84
2023/07/19 05:28:14;;;;;;;11.15;8.73;;;;;;;;;;5003588;28;20503;-84
2023/07/19 05:30:40;;;;;;;13.30;9.15;;;;;;;;;;5030845;28;20461;-85
2023/07/19 05:33:06;;;;;;;9.60;8.13;;;;;;;;;;5045306;28;20045;-84
2023/07/19 05:35:35;;;;;;;11.55;9.20;;;;;;;;;;5040967;28;20115;-84
2023/07/19 05:38:01;;;;;;;9.73;8.50;;;;;;;;;;5026148;28;20493;-85
2023/07/19 05:40:31;;;;;;;9.30;8.40;;;;;;;;;;5035186;28;20045;-84
2023/07/19 05:42:59;;;;;;;11.98;9.13;;;;;;;;;;5020423;28;20468;-84
2023/07/19 05:45:25;;;;;;;10.43;8.23;;;;;;;;;;5017277;28;20045;-84
2023/07/19 05:47:52;;;;;;;12.32;9.18;;;;;;;;;;5053424;28;20037;-84
2023/07/19 05:50:19;;;;;;;11.23;8.20;;;;;;;;;;5026367;28;20434;-85
2023/07/19 05:52:45;;;;;;;10.32;7.85;;;;;;;;;;5019207;28;20316;-84
2023/07/19 05:55:11;;;;;;;15.57;8.63;;;;;;;;;;5028398;28;20092;-84
2023/07/19 05:57:37;;;;;;;9.98;8.43;;;;;;;;;;5029919;28;20659;-84
2023/07/19 06:00:13;;;;;;;10.05;7.30;;;;;;;;;;5026890;28;20881;-84
2023/07/19 06:02:40;;;;;;;10.57;6.97;;;;;;;;;;5047553;28;20136;-84
2023/07/19 06:05:06;;;;;;;9.45;6.65;;;;;;;;;;5021831;28;20069;-84
2023/07/19 06:07:33;;;;;;;9.15;6.97;;;;;;;;;;5047505;28;20619;-84
2023/07/19 06:10:00;;;;;;;6.90;6.10;;;;;;;;;;5027413;28;20387;-84
2023/07/19 06:12:26;;;;;;;9.52;6.47;;;;;;;;;;5012968;28;20120;-83
2023/07/19 06:14:52;;;;;;;8.55;6.72;;;;;;;;;;5032711;28;20145;-83
2023/07/19 06:17:18;;;;;;;11.25;7.15;;;;;;;;;;5020378;28;20128;-83
2023/07/19 06:19:54;;;;;;;13.43;6.55;;;;;;;;;;5029644;28;20052;-84
2023/07/19 06:22:20;;;;;;;7.55;6.10;;;;;;;;;;5008769;28;21493;-85
2023/07/19 06:24:46;;;;;;;8.70;6.07;;;;;;;;;;5019132;28;20395;-85
2023/07/19 06:27:12;;;;;;;8.88;6.10;;;;;;;;;;5012055;28;20045;-84
2023/07/19 06:29:40;;;;;;;8.88;6.63;;;;;;;;;;5048925;28;20067;-85
2023/07/19 06:32:10;;;;;;;;;;;;;;;;;;5006872;28;20051;-84
2023/07/19 06:34:36;;;;;;;9.05;6.82;;;;;;;;;;5012713;28;19921;-85
2023/07/19 06:37:02;;;;;;;10.70;6.65;;;;;;;;;;5009734;28;20123;-85
2023/07/19 06:39:29;;;;;;;7.10;6.40;;;;;;;;;;5009543;28;20138;-85
2023/07/19 06:41:55;;;;;;;7.38;6.13;;;;;;;;;;5007266;28;20767;-85
2023/07/19 06:44:47;;;;;;;10.02;6.25;;;;;;;;;;5034661;28;20090;-87
2023/07/19 06:47:49;;;;;;;;;;;;;;;;;;;;;
2023/07/19 06:50:24;;;;;;;9.90;6.05;;;;;;;;;;4972176;28;20100;-85
2023/07/19 06:52:53;;;;;;;7.10;5.20;;;;;;;;;;5030133;28;20052;-86
2023/07/19 06:55:19;;;;;;;6.82;4.95;;;;;;;;;;5025303;28;20055;-84
2023/07/19 06:57:45;;;;;;;6.00;4.38;;;;;;;;;;5015128;28;20527;-84
2023/07/19 07:00:12;;;;;;;6.20;5.03;;;;;;;;;;5027867;28;20102;-84
2023/07/19 07:02:38;;;;;;;4.63;3.78;;;;;;;;;;5012879;28;20495;-84
2023/07/19 07:05:05;;;;;;;4.40;3.53;;;;;;;;;;5022946;28;20531;-84
2023/07/19 07:07:31;;;;;;;9.63;4.47;;;;;;;;;;5058809;28;20103;-84
2023/07/19 07:10:04;;;;;;;7.35;4.53;;;;;;;;;;5055977;28;20607;-83
2023/07/19 07:12:31;;;;;;;7.82;3.85;;;;;;;;;;5024096;28;20113;-84
2023/07/19 07:14:57;;;;;;;5.82;3.80;;;;;;;;;;5013126;28;20865;-84
2023/07/19 07:17:25;;;;;;;8.52;4.30;;;;;;;;;;5009896;28;20454;-84
2023/07/19 07:20:10;;;;;;;6.25;3.92;;;;;;;;;;5038671;28;20344;-84
2023/07/19 07:22:36;;;;;;;5.82;4.60;;;;;;;;;;5037388;28;20037;-84
2023/07/19 07:25:02;;;;;;;9.10;4.65;;;;;;;;;;5017073;28;20041;-84
2023/07/19 07:27:28;;;;;;;6.43;4.65;;;;;;;;;;5041227;28;20048;-84
2023/07/19 07:29:54;;;;;;;8.15;4.85;;;;;;;;;;5041014;28;20045;-84
2023/07/19 07:32:20;;;;;;;7.07;4.50;;;;;;;;;;5030117;28;20186;-84
2023/07/19 07:34:46;;;;;;;6.13;4.05;;;;;;;;;;5055838;28;20036;-83
2023/07/19 07:37:12;;;;;;;4.18;3.60;;;;;;;;;;5030912;28;20060;-84
2023/07/19 07:39:38;;;;;;;7.80;3.60;;;;;;;;;;5022343;28;20399;-84
2023/07/19 07:42:05;;;;;;;4.95;3.28;;;;;;;;;;5046685;28;20128;-84
2023/07/19 07:44:31;;;;;;;5.85;3.63;;;;;;;;;;5033275;28;20045;-84
2023/07/19 07:47:00;;;;;;;5.55;3.75;;;;;;;;;;5038490;28;20482;-84
2023/07/19 07:49:26;;;;;;;4.85;3.85;;;;;;;;;;5071959;28;20067;-84
2023/07/19 07:51:52;;;;;;;5.63;3.13;;;;;;;;;;5034229;28;20079;-84
2023/07/19 07:54:20;;;;;;;8.50;4.05;;;;;;;;;;5062792;28;20731;-84
2023/07/19 07:56:46;;;;;;;4.47;3.30;;;;;;;;;;5032493;28;20450;-84
2023/07/19 07:59:12;;;;;;;6.28;3.10;;;;;;;;;;5042854;28;21130;-84
2023/07/19 08:01:38;;;;;;;4.55;3.10;;;;;;;;;;5030948;28;20751;-84
2023/07/19 08:04:06;;;;;;;4.38;2.90;;;;;;;;;;5016208;28;20057;-84
2023/07/19 08:06:32;;;;;;;4.53;2.65;;;;;;;;;;5037993;28;20072;-84
2023/07/19 08:08:58;;;;;;;5.30;3.22;;;;;;;;;;5051176;28;20078;-84
2023/07/19 08:11:26;;;;;;;4.53;2.97;;;;;;;;;;5021663;28;20036;-84
2023/07/19 08:13:52;;;;;;;4.85;2.78;;;;;;;;;;5054772;28;20095;-84
2023/07/19 08:16:18;;;;;;;6.55;2.47;;;;;;;;;;5017553;28;20463;-84
2023/07/19 08:18:44;;;;;;;4.90;2.70;;;;;;;;;;5036924;28;20128;-83
2023/07/19 08:21:10;;;;;;;5.43;2.30;;;;;;;;;;5033816;28;20488;-84
2023/07/19 08:23:37;;;;;;;3.85;2.20;;;;;;;;;;5032811;28;20052;-84
2023/07/19 08:26:03;;;;;;;4.13;2.10;;;;;;;;;;5034172;28;20124;-84
2023/07/19 08:28:29;;;;;;;4.18;1.95;;;;;;;;;;5037733;28;20067;-84
2023/07/19 08:30:55;;;;;;;3.92;1.60;;;;;;;;;;5040173;28;20067;-84
2023/07/19 08:33:22;;;;;;;3.17;1.75;;;;;;;;;;5017407;28;20098;-84
2023/07/19 08:35:49;;;;;;;2.85;1.52;;;;;;;;;;5019753;28;20548;-84
2023/07/19 08:38:15;;;;;;;2.83;1.50;;;;;;;;;;5029432;28;20128;-84
2023/07/19 08:40:41;;;;;;;3.80;1.63;;;;;;;;;;5068041;28;20069;-84
2023/07/19 08:43:08;;;;;;;3.22;1.30;;;;;;;;;;5001760;28;20041;-84
2023/07/19 08:45:34;;;;;;;7.75;2.65;;;;;;;;;;5022211;28;20479;-84
2023/07/19 08:48:00;;;;;;;6.68;1.45;;;;;;;;;;5017272;28;20061;-84
2023/07/19 08:50:26;;;;;;;2.97;1.30;;;;;;;;;;5036183;28;20037;-84
2023/07/19 08:52:53;;;;;;;2.85;1.30;;;;;;;;;;5035209;28;20045;-84
2023/07/19 08:55:19;;;;;;;2.90;1.48;;;;;;;;;;5032422;28;20356;-84
2023/07/19 08:57:45;;;;;;;3.40;1.40;;;;;;;;;;5019138;28;20044;-84
2023/07/19 09:00:15;;;;;;;4.63;1.50;;;;;;;;;;5031281;28;20073;-84
2023/07/19 09:02:41;;;;;;;3.38;1.40;;;;;;;;;;5049247;28;20049;-84
2023/07/19 09:05:14;;;;;;;2.42;1.40;;;;;;;;;;5013359;28;20045;-84
2023/07/19 09:07:40;;;;;;;4.40;1.50;;;;;;;;;;5017996;28;20037;-84
2023/07/19 09:10:07;;;;;;;3.50;1.40;;;;;;;;;;5048072;28;20063;-84
2023/07/19 09:12:37;;;;;;;5.07;1.48;;;;;;;;;;5052694;28;20067;-84
2023/07/19 09:15:06;;;;;;;4.53;1.90;;;;;;;;;;5034069;28;20079;-84
2023/07/19 09:17:37;;;;;;;5.07;1.83;;;;;;;;;;5058149;28;20077;-84
2023/07/19 09:20:04;;;;;;;5.22;2.20;;;;;;;;;;5039062;28;20088;-84
2023/07/19 09:22:30;;;;;;;3.55;1.88;;;;;;;;;;5040967;28;20072;-84
2023/07/19 09:25:03;;;;;;;5.43;2.40;;;;;;;;;;5022085;28;20052;-84
2023/07/19 09:27:29;;;;;;;3.35;2.70;;;;;;;;;;5038068;28;20117;-84
2023/07/19 09:29:56;;;;;;;3.97;2.50;;;;;;;;;;5040169;28;20076;-84
2023/07/19 09:32:23;;;;;;;4.22;2.58;;;;;;;;;;5036943;28;20045;-84
2023/07/19 09:34:49;;;;;;;6.85;2.63;;;;;;;;;;5022200;28;20480;-84
2023/07/19 09:37:19;;;;;;;5.03;2.60;;;;;;;;;;5051879;28;20060;-84
2023/07/19 09:39:46;;;;;;;5.47;2.70;;;;;;;;;;5037006;28;20066;-84
2023/07/19 09:42:13;;;;;;;5.10;2.70;;;;;;;;;;5020464;28;20562;-85
2023/07/19 09:44:39;;;;;;;4.07;1.85;;;;;;;;;;5054393;28;20075;-84
2023/07/19 09:47:09;;;;;;;5.40;2.30;;;;;;;;;;5021206;28;20081;-84
2023/07/19 09:49:36;;;;;;;6.20;2.38;;;;;;;;;;5055273;28;20071;-84
2023/07/19 09:55:04;;;;;;;2.83;2.40;;;;;;;;;;5042059;28;20507;-84
2023/07/19 09:57:31;;;;;;;5.82;2.80;;;;;;;;;;5021696;28;20029;-83
2023/07/19 09:59:59;;;;;;;4.85;2.47;;;;;;;;;;5039513;28;20443;-83
2023/07/19 10:02:28;;;;;;;4.20;1.88;;;;;;;;;;5031319;28;20044;-84
2023/07/19 10:04:54;;;;;;;5.28;2.15;;;;;;;;;;5026812;28;20111;-83
2023/07/19 10:07:21;;;;;;;3.00;1.92;;;;;;;;;;5046059;28;20049;-86
2023/07/19 10:10:00;;;;;;;3.05;1.90;;;;;;;;;;5023074;28;20087;-85
2023/07/19 10:12:29;;;;;;;4.15;1.73;;;;;;;;;;5065420;28;20071;-85
2023/07/19 10:15:49;;;;;;;3.13;2.00;;;;;;;;;;5002211;28;20098;-85
2023/07/19 10:18:35;;;;;;;2.55;1.70;;;;;;;;;;5027291;28;20033;-86
2023/07/19 10:21:06;;;;;;;2.72;1.60;;;;;;;;;;5048659;28;20120;-86
2023/07/19 10:24:06;;;;;;;4.13;1.88;;;;;;;;;;5032967;28;20041;-87
2023/07/19 10:26:42;;;;;;;2.53;1.58;;;;;;;;;;4979615;28;20581;-86
2023/07/19 10:29:17;;;;;;;2.53;1.73;;;;;;;;;;4980955;28;20756;-86
2023/07/19 10:31:43;;;;;;;3.92;1.80;;;;;;;;;;4962729;28;20057;-86
2023/07/19 10:34:18;;;;;;;2.28;1.55;;;;;;;;;;4976653;28;20050;-86
2023/07/19 10:36:52;;;;;;;2.45;1.52;;;;;;;;;;4971930;28;20114;-86
2023/07/19 10:39:23;;;;;;;2.40;1.60;;;;;;;;;;4989358;28;20045;-85
2023/07/19 10:41:49;;;;;;;;;;;;;;;;;;4973156;28;20041;-85
2023/07/19 10:47:46;;;;;;;2.20;1.25;;;;;;;;;;5033478;28;20041;-85
2023/07/19 10:50:12;;;;;;;2.75;1.27;;;;;;;;;;5038470;28;20040;-85
2023/07/19 10:52:38;;;;;;;5.75;1.40;;;;;;;;;;5023473;28;20079;-85
2023/07/19 10:55:13;;;;;;;3.05;1.38;;;;;;;;;;5028416;28;20396;-85
2023/07/19 10:57:42;;;;;;;3.88;1.60;;;;;;;;;;5057308;28;20132;-86
2023/07/19 11:00:12;;;;;;;3.88;1.48;;;;;;;;;;5048781;28;20039;-86
2023/07/19 11:02:41;;;;;;;2.40;1.10;;;;;;;;;;5035581;28;20584;-86
2023/07/19 11:05:13;;;;;;;3.25;1.40;;;;;;;;;;5008038;28;20061;-85
2023/07/19 11:07:41;;;;;;;3.33;1.42;;;;;;;;;;5017022;28;20041;-85
2023/07/19 11:29:58;;;;;;;4.78;2.28;;;;;;;;;;4991383;28;21238;-86
2023/07/19 11:32:30;;;;;;;7.10;3.25;;;;;;;;;;4960610;28;20042;-85
2023/07/19 11:34:58;;;;;;;5.15;2.97;;;;;;;;;;4943052;28;20058;-85
2023/07/19 11:37:28;;;;;;;5.35;3.15;;;;;;;;;;4959339;28;20054;-85
2023/07/19 11:40:04;;;;;;;8.20;2.83;;;;;;;;;;4954676;28;20497;-85
2023/07/19 11:42:46;;;;;;;5.20;2.70;;;;;;;;;;4964717;28;20498;-85
2023/07/19 11:45:13;;;;;;;4.85;2.70;;;;;;;;;;4958333;28;20063;-85
2023/07/19 11:47:41;;;;;;;3.97;2.70;;;;;;;;;;4964374;28;20848;-84
2023/07/19 11:50:08;;;;;;;4.63;2.65;;;;;;;;;;4975928;28;20123;-84
2023/07/19 11:52:47;;;;;;;2.85;1.95;;;;;;;;;;4950352;28;20041;-84
2023/07/19 11:55:16;;;;;;;2.70;2.17;;;;;;;;;;4936533;28;20086;-84
2023/07/19 11:57:43;;;;;;;2.58;2.17;;;;;;;;;;4980307;28;20509;-84
2023/07/19 12:00:10;;;;;;;2.25;1.92;;;;;;;;;;4957119;28;20037;-84
2023/07/19 12:02:36;;;;;;;3.10;2.35;;;;;;;;;;4966153;28;20440;-84
2023/07/19 12:05:04;;;;;;;3.38;2.90;;;;;;;;;;4945875;28;20045;-85
2023/07/19 12:07:31;;;;;;;2.83;2.35;;;;;;;;;;4969797;28;20693;-86
2023/07/19 12:10:00;;;;;;;5.40;2.55;;;;;;;;;;4964789;28;20293;-87
2023/07/19 12:12:46;;;;;;;3.88;2.38;;;;;;;;;;4963057;28;20045;-87
2023/07/19 12:15:15;;;;;;;4.70;2.80;;;;;;;;;;4954386;28;20068;-86
2023/07/19 12:17:45;;;;;;;4.18;3.25;;;;;;;;;;4961920;28;20509;-86
2023/07/19 12:20:14;;;;;;;3.35;2.90;;;;;;;;;;4946447;28;20046;-85
2023/07/19 12:22:41;;;;;;;3.33;3.00;;;;;;;;;;4958235;28;20497;-86
2023/07/19 12:25:07;;;;;;;4.03;3.10;;;;;;;;;;4967597;28;20133;-85
2023/07/19 12:27:34;;;;;;;4.50;3.53;;;;;;;;;;4955767;28;20046;-86
2023/07/19 12:30:10;;;;;;;4.47;2.65;;;;;;;;;;4981804;28;20050;-85
2023/07/19 12:32:36;;;;;;;3.15;2.80;;;;;;;;;;4957840;28;20042;-85
2023/07/19 12:35:02;;;;;;;6.88;3.50;;;;;;;;;;4953674;28;20065;-87
2023/07/19 12:37:34;;;;;;;3.72;3.30;;;;;;;;;;4952661;28;20038;-87
2023/07/19 12:40:15;;;;;;;5.18;3.30;;;;;;;;;;4965308;28;20048;-87
2023/07/19 12:42:42;;;;;;;4.72;3.75;;;;;;;;;;4964018;28;20050;-87
2023/07/19 12:45:09;;;;;;;3.90;2.92;;;;;;;;;;4952515;28;21759;-86
2023/07/19 12:47:39;;;;;;;5.82;3.05;;;;;;;;;;4968127;28;20113;-86
2023/07/19 12:50:24;;;;;;;4.55;3.38;;;;;;;;;;4972647;28;20041;-86
2023/07/19 12:52:53;;;;;;;5.45;3.08;;;;;;;;;;4966283;28;20034;-86
2023/07/19 12:55:28;;;;;;;4.32;3.10;;;;;;;;;;4957551;28;20045;-86
2023/07/19 12:57:55;;;;;;;4.30;3.40;;;;;;;;;;4965245;28;20041;-85
2023/07/19 13:00:21;;;;;;;3.92;3.15;;;;;;;;;;4968035;28;20060;-85
2023/07/19 13:02:48;;;;;;;6.97;3.20;;;;;;;;;;4948941;28;20069;-86
2023/07/19 13:05:14;;;;;;;5.15;3.35;;;;;;;;;;4951975;28;20736;-86
2023/07/19 13:20:23;;;;;;;4.93;3.88;;;;;;;;;;4952254;28;20127;-88
2023/07/19 13:22:54;;;;;;;6.75;4.32;;;;;;;;;;4950810;28;20707;-87
2023/07/19 13:25:28;;;;;;;7.20;4.15;;;;;;;;;;4911648;28;20405;-87
2023/07/19 13:27:56;;;;;;;5.18;4.25;;;;;;;;;;4921307;28;20053;-87
2023/07/19 13:30:51;;;;;;;5.60;4.20;;;;;;;;;;4929205;28;20490;-88
2023/07/19 13:33:20;;;;;;;5.72;3.70;;;;;;;;;;4929351;28;21949;-87
2023/07/19 13:38:54;;;;;;;4.85;3.33;;;;;;;;;;4923332;28;20050;-87
2023/07/19 13:41:48;;;;;;;5.93;3.30;;;;;;;;;;4923949;28;20121;-87
2023/07/19 13:44:23;;;;;;;5.60;3.40;;;;;;;;;;4939806;28;20379;-87
2023/07/19 13:47:10;;;;;;;4.90;3.05;;;;;;;;;;4947651;28;21534;-87
2023/07/19 13:49:55;;;;;;;6.53;4.18;;;;;;;;;;4975337;28;20045;-89
2023/07/19 13:52:42;;;;;;;;;;;;;;;;;;;;;
2023/07/19 13:58:42;;;;;;;4.60;4.20;;;;;;;;;;4992330;28;20118;-90
2023/07/19 14:01:39;;;;;;;4.55;3.85;;;;;;;;;;4935864;28;21021;-88
2023/07/19 14:04:24;;;;;;;;;;;;;;;;;;;;;
2023/07/19 14:06:58;;;;;;;5.28;3.25;;;;;;;;;;4978915;28;20049;-88
2023/07/19 14:09:26;;;;;;;3.47;2.70;;;;;;;;;;4960926;28;20048;-88
2023/07/19 14:12:05;;;;;;;;;;;;;;;;;;;;;
2023/07/19 14:14:36;;;;;;;3.90;2.80;;;;;;;;;;4961065;28;20061;-87
2023/07/19 14:19:54;;;;;;;4.57;2.40;;;;;;;;;;4970296;28;20046;-87
2023/07/19 14:22:21;;;;;;;4.13;2.38;;;;;;;;;;4957395;28;20129;-87
2023/07/19 14:24:50;;;;;;;3.38;2.40;;;;;;;;;;4956777;28;20184;-87
2023/07/19 14:27:18;;;;;;;4.70;2.85;;;;;;;;;;4958402;28;20493;-88
2023/07/19 14:29:52;;;;;;;3.60;2.40;;;;;;;;;;4946836;28;20046;-88
2023/07/19 14:32:23;;;;;;;3.67;2.80;;;;;;;;;;4955899;28;20492;-87
2023/07/19 14:34:52;;;;;;;4.30;2.80;;;;;;;;;;4960511;28;20061;-88
2023/07/19 14:37:47;;;;;;;4.55;2.92;;;;;;;;;;4963777;28;20049;-88
2023/07/19 14:40:21;;;;;;;2.60;2.40;;;;;;;;;;4960928;28;20045;-89
2023/07/19 14:43:27;;;;;;;4.35;2.70;;;;;;;;;;4953653;28;20108;-89
2023/07/19 14:46:27;;;;;;;4.60;2.97;;;;;;;;;;4946279;28;20124;-90
2023/07/19 14:52:20;;;;;;;7.00;3.58;;;;;;;;;;4937214;28;20072;-89
2023/07/19 14:54:55;;;;;;;4.60;3.50;;;;;;;;;;4937003;28;20850;-88
2023/07/19 14:57:29;;;;;;;4.97;4.07;;;;;;;;;;4934235;28;20117;-89
2023/07/19 15:00:09;;;;;;;4.30;3.90;;;;;;;;;;4939760;28;20058;-88
2023/07/19 15:02:35;;;;;;;5.03;4.07;;;;;;;;;;4917849;28;20122;-88
2023/07/19 15:05:08;;;;;;;4.35;3.95;;;;;;;;;;4919022;28;20089;-89
2023/07/19 15:07:48;;;;;;;;;;;;;;;;;;;;;
2023/07/19 15:10:16;;;;;;;4.20;3.80;;;;;;;;;;4927721;28;20060;-86
2023/07/19 15:12:43;;;;;;;5.18;3.63;;;;;;;;;;4930338;28;20374;-86
2023/07/19 15:15:10;;;;;;;4.63;3.30;;;;;;;;;;4932508;28;20058;-85
2023/07/19 15:17:36;;;;;;;4.72;3.53;;;;;;;;;;4938210;28;20049;-86
2023/07/19 15:20:04;;;;;;;4.03;2.90;;;;;;;;;;4954142;28;20045;-86
2023/07/19 15:22:32;;;;;;;3.40;2.38;;;;;;;;;;4962204;28;20131;-86
2023/07/19 15:28:04;;;;;;;3.30;3.00;;;;;;;;;;4957785;28;20057;-85
2023/07/19 15:30:30;;;;;;;3.78;2.40;;;;;;;;;;4946969;28;20060;-85
2023/07/19 15:33:00;;;;;;;3.92;2.40;;;;;;;;;;4975625;28;20095;-85
2023/07/19 15:35:26;;;;;;;3.70;2.50;;;;;;;;;;4949365;28;20042;-85
2023/07/19 15:37:55;;;;;;;3.58;2.20;;;;;;;;;;4976840;28;20073;-85
2023/07/19 15:40:24;;;;;;;3.40;2.30;;;;;;;;;;4953338;28;20493;-85
2023/07/19 15:42:50;;;;;;;2.17;1.88;;;;;;;;;;4957876;28;20053;-84
2023/07/19 15:45:16;;;;;;;2.08;1.75;;;;;;;;;;4951288;28;20042;-84
2023/07/19 15:47:42;;;;;;;2.75;1.50;;;;;;;;;;4949105;28;20038;-85
2023/07/19 15:50:11;;;;;;;3.35;1.25;;;;;;;;;;4930393;28;20049;-85
2023/07/19 15:52:40;;;;;;;2.67;1.55;;;;;;;;;;4970411;28;20038;-85